Terminal Aerodrome Forecast
Issued by NWS

Home | Current Version | Previous Version | Text Only | Print | Product List | Glossary On
Versions: 1 2 3 4 5 6 7 8 9 10 11 12
000
FTUS45 KABQ 290535
TAFROW
TAF
KROW 290535Z 2906/3006 15007KT P6SM SKC
     FM291000 16007KT P6SM SCT015
      TEMPO 2910/2914 BKN015
     FM291600 16010KT P6SM SCT040
     FM292000 19020G30KT P6SM VCTS BKN060CB=

USA.gov is the U.S. government's official web portal to all federal, state and local government web resources and services.